createdAt,value
2022-08-11T00:02:14.503Z,42.55
2022-08-11T00:05:16.577Z,38.10
2022-08-11T00:08:07.025Z,46.22
2022-08-11T00:11:05.823Z,51.13
2022-08-11T00:13:56.457Z,47.20
2022-08-11T00:17:05.382Z,48.70
2022-08-11T00:20:14.733Z,55.05
2022-08-11T00:23:19.733Z,55.88
2022-08-11T00:26:10.750Z,58.17
2022-08-11T00:29:13.977Z,54.08
2022-08-11T00:32:06.494Z,61.35
2022-08-11T00:35:49.904Z,54.85
2022-08-11T00:38:08.720Z,57.58
2022-08-11T00:41:25.563Z,62.60
2022-08-11T00:44:43.383Z,69.15
2022-08-11T00:47:34.650Z,63.92
2022-08-11T00:50:24.796Z,63.72
2022-08-11T00:53:52.252Z,67.00
2022-08-11T00:56:59.776Z,71.53
2022-08-11T01:00:15.208Z,72.90
2022-08-11T01:03:27.230Z,71.50
2022-08-11T01:06:50.812Z,75.22
2022-08-11T01:09:52.468Z,77.93
2022-08-11T01:13:00.080Z,80.93
2022-08-11T01:16:11.024Z,86.20
2022-08-11T01:19:04.094Z,84.78
2022-08-11T01:22:26.010Z,85.45
2022-08-11T01:25:56.940Z,74.50
2022-08-11T01:29:20.617Z,59.78
2022-08-11T01:32:24.781Z,52.85
2022-08-11T01:35:32.962Z,57.13
2022-08-11T01:38:45.832Z,59.13
2022-08-11T01:42:02.921Z,62.90
2022-08-11T01:45:38.636Z,56.78
2022-08-11T01:48:50.070Z,42.67
2022-08-11T01:51:55.804Z,37.97
2022-08-11T01:55:02.159Z,50.53
2022-08-11T01:58:40.835Z,40.45
2022-08-11T02:02:01.908Z,24.15
2022-08-11T02:05:01.148Z,29.95
2022-08-11T02:08:13.188Z,29.23
2022-08-11T02:11:35.830Z,37.22
2022-08-11T02:14:39.969Z,47.20
2022-08-11T02:18:03.813Z,32.15
2022-08-11T02:21:21.044Z,29.15
2022-08-11T02:24:25.363Z,37.45
2022-08-11T02:27:28.692Z,30.85
2022-08-11T02:30:20.588Z,30.83
2022-08-11T02:33:27.435Z,30.63
2022-08-11T02:36:22.882Z,35.40
2022-08-11T02:39:16.898Z,31.58
2022-08-11T02:42:32.817Z,32.47
2022-08-11T02:45:37.691Z,31.17
2022-08-11T02:49:04.350Z,28.45
2022-08-11T02:51:58.102Z,28.80
2022-08-11T02:55:13.449Z,25.63
2022-08-11T02:58:51.799Z,18.75
2022-08-11T03:02:05.253Z,14.32
2022-08-11T03:05:05.243Z,17.95
2022-08-11T03:08:10.494Z,17.50
2022-08-11T03:11:23.627Z,19.73
2022-08-11T03:14:40.833Z,27.95
2022-08-11T03:17:34.971Z,32.70
2022-08-11T03:20:38.153Z,27.15
2022-08-11T03:24:08.129Z,30.98
2022-08-11T03:27:13.094Z,33.67
2022-08-11T03:30:19.558Z,23.25
2022-08-11T03:33:50.482Z,33.95
2022-08-11T03:37:16.944Z,26.40
2022-08-11T03:40:44.856Z,33.92
2022-08-11T03:43:50.135Z,36.47
2022-08-11T03:47:09.457Z,34.58
2022-08-11T03:50:26.947Z,36.17
2022-08-11T03:53:43.738Z,43.30
2022-08-11T03:56:54.378Z,35.33
2022-08-11T03:59:46.678Z,25.23
2022-08-11T04:02:55.669Z,37.45
2022-08-11T04:06:15.231Z,36.47
2022-08-11T04:09:38.856Z,42.00
2022-08-11T04:12:52.968Z,28.15
2022-08-11T04:16:11.598Z,32.70
2022-08-11T04:19:40.032Z,26.73
2022-08-11T04:22:32.511Z,26.70
2022-08-11T04:25:57.870Z,22.80
2022-08-11T04:29:13.111Z,21.63
2022-08-11T04:32:21.950Z,23.42
2022-08-11T04:35:32.568Z,22.42
2022-08-11T04:38:40.477Z,19.75
2022-08-11T04:42:06.183Z,22.40
2022-08-11T04:45:12.383Z,19.17
2022-08-11T04:48:57.793Z,17.17
2022-08-11T04:52:06.022Z,13.98
2022-08-11T04:55:40.465Z,14.77
2022-08-11T04:59:04.926Z,13.75
2022-08-11T05:02:22.984Z,14.18
2022-08-11T05:05:34.734Z,11.07
2022-08-11T05:08:31.213Z,10.60
2022-08-11T05:11:27.655Z,13.95
2022-08-11T05:14:47.303Z,11.18
2022-08-11T05:18:06.416Z,15.38
2022-08-11T05:21:16.343Z,14.13
2022-08-11T05:24:57.862Z,14.98
2022-08-11T05:28:54.667Z,16.17
2022-08-11T05:32:08.661Z,10.68
2022-08-11T05:35:00.125Z,17.58
2022-08-11T05:38:09.384Z,13.07
2022-08-11T05:41:18.319Z,13.32
2022-08-11T05:44:27.354Z,16.13
2022-08-11T05:47:46.150Z,12.10
2022-08-11T05:50:55.333Z,23.98
2022-08-11T05:54:27.864Z,14.85
2022-08-11T05:57:49.647Z,14.82
2022-08-11T06:00:47.749Z,14.88
2022-08-11T06:03:58.923Z,10.60
2022-08-11T06:06:55.034Z,21.25
2022-08-11T06:09:50.142Z,17.92
2022-08-11T06:12:42.189Z,16.05
2022-08-11T06:15:34.450Z,15.85
2022-08-11T06:18:24.886Z,13.02
2022-08-11T06:21:15.194Z,11.95
2022-08-11T06:24:16.469Z,13.43
2022-08-11T06:27:13.109Z,17.13
2022-08-11T06:30:04.132Z,19.02
2022-08-11T06:32:56.863Z,16.23
2022-08-11T06:36:12.421Z,20.23
2022-08-11T06:39:21.700Z,15.65
2022-08-11T06:42:16.127Z,12.80
2022-08-11T06:45:22.263Z,13.75
2022-08-11T06:48:19.775Z,15.32
2022-08-11T06:51:13.830Z,18.10
2022-08-11T06:54:05.821Z,27.42
2022-08-11T06:57:31.062Z,19.73
2022-08-11T07:00:33.020Z,19.42
2022-08-11T07:03:24.220Z,12.60
2022-08-11T07:06:50.577Z,20.52
2022-08-11T07:10:36.076Z,22.23
2022-08-11T07:13:45.894Z,19.23
2022-08-11T07:16:36.846Z,14.95
2022-08-11T07:19:47.418Z,11.48
2022-08-11T07:22:56.985Z,13.43
2022-08-11T07:26:09.093Z,13.50
2022-08-11T07:29:03.169Z,12.82
2022-08-11T07:31:55.376Z,12.18
2022-08-11T07:34:54.601Z,14.07
2022-08-11T07:38:01.771Z,15.70
2022-08-11T07:40:53.139Z,19.73
2022-08-11T07:43:45.668Z,13.65
2022-08-11T07:46:54.206Z,16.10
2022-08-11T07:50:05.628Z,21.90
2022-08-11T07:52:56.770Z,19.23
2022-08-11T07:55:50.174Z,15.68
2022-08-11T07:59:05.239Z,12.85
2022-08-11T08:02:16.731Z,13.65
2022-08-11T08:05:27.345Z,12.98
2022-08-11T08:08:36.246Z,14.13
2022-08-11T08:11:45.768Z,15.10
2022-08-11T08:14:54.574Z,24.55
2022-08-11T08:18:09.162Z,11.75
2022-08-11T08:21:18.446Z,18.90
2022-08-11T08:24:09.458Z,17.23
2022-08-11T08:26:59.975Z,17.02
2022-08-11T08:30:09.652Z,20.73
2022-08-11T08:33:02.457Z,17.17
2022-08-11T08:36:13.478Z,15.02
2022-08-11T08:39:04.979Z,13.80
2022-08-11T08:41:57.915Z,18.48
2022-08-11T08:44:52.325Z,16.30
2022-08-11T08:47:47.003Z,18.38
2022-08-11T08:51:05.155Z,12.52
2022-08-11T08:53:56.388Z,17.05
2022-08-11T08:56:49.256Z,11.88
2022-08-11T08:59:48.628Z,17.58
2022-08-11T09:02:40.339Z,14.38
2022-08-11T09:05:30.011Z,13.50
2022-08-11T09:08:21.577Z,11.65
2022-08-11T09:11:31.763Z,15.23
2022-08-11T09:14:25.076Z,16.42
2022-08-11T09:17:16.596Z,20.15
2022-08-11T09:20:08.299Z,19.23
2022-08-11T09:26:50.546Z,23.17
2022-08-11T09:29:40.647Z,21.55
2022-08-11T09:32:32.938Z,20.30
2022-08-11T09:35:24.035Z,21.00
2022-08-11T09:38:35.334Z,17.83
2022-08-11T09:41:25.819Z,18.90
2022-08-11T09:44:33.951Z,16.90
2022-08-11T09:47:33.932Z,15.57
2022-08-11T09:50:23.367Z,14.38
2022-08-11T09:53:37.157Z,19.63
2022-08-11T09:56:44.534Z,15.95
2022-08-11T09:59:36.112Z,14.52
2022-08-11T10:02:30.311Z,20.88
2022-08-11T10:05:41.407Z,17.75
2022-08-11T10:08:32.659Z,19.55
2022-08-11T10:11:26.043Z,15.85
2022-08-11T10:14:37.494Z,15.63
2022-08-11T10:17:29.265Z,12.85
2022-08-11T10:20:22.671Z,19.42
2022-08-11T10:23:33.753Z,16.38
2022-08-11T10:26:47.205Z,15.98
2022-08-11T10:29:57.505Z,18.15
2022-08-11T10:33:07.907Z,15.85
2022-08-11T10:36:01.577Z,13.43
2022-08-11T10:38:53.657Z,17.30
2022-08-11T10:42:08.508Z,12.68
2022-08-11T10:45:00.977Z,12.90
2022-08-11T10:47:51.635Z,16.65
2022-08-11T10:51:00.996Z,19.85
2022-08-11T10:54:12.625Z,18.45
2022-08-11T10:57:21.311Z,15.07
2022-08-11T11:00:16.562Z,20.88
2022-08-11T11:03:22.825Z,23.13
2022-08-11T11:06:38.355Z,22.33
2022-08-11T11:10:00.952Z,24.13
2022-08-11T11:13:53.364Z,25.13
2022-08-11T11:16:52.974Z,27.20
2022-08-11T11:19:45.325Z,21.75
2022-08-11T11:22:40.623Z,31.63
2022-08-11T11:26:12.557Z,28.88
2022-08-11T11:29:10.688Z,34.38
2022-08-11T11:32:24.079Z,27.60
2022-08-11T11:35:37.897Z,25.50
2022-08-11T11:38:30.063Z,27.02
2022-08-11T11:41:27.723Z,24.15
2022-08-11T11:44:19.798Z,31.38
2022-08-11T11:47:12.873Z,31.52
2022-08-11T11:50:18.035Z,32.40
2022-08-11T11:53:21.870Z,30.48
2022-08-11T11:56:17.486Z,29.40
2022-08-11T11:59:31.132Z,35.55
2022-08-11T12:02:23.719Z,31.45
2022-08-11T12:05:19.148Z,29.98
2022-08-11T12:08:24.602Z,33.00
2022-08-11T12:11:36.671Z,28.73
2022-08-11T12:14:30.360Z,27.63
2022-08-11T12:17:25.244Z,25.63
2022-08-11T12:20:34.035Z,24.38
2022-08-11T12:23:43.565Z,23.88
2022-08-11T12:27:16.656Z,19.00
2022-08-11T12:30:13.224Z,19.42
2022-08-11T12:33:05.495Z,20.67
2022-08-11T12:36:01.614Z,22.00
2022-08-11T12:38:54.159Z,20.77
2022-08-11T12:42:04.258Z,21.88
2022-08-11T12:45:22.301Z,19.02
2022-08-11T12:49:00.765Z,17.88
2022-08-11T12:52:14.819Z,21.45
2022-08-11T12:55:14.094Z,21.73
2022-08-11T12:58:22.217Z,22.38
2022-08-11T13:01:32.591Z,24.98
2022-08-11T13:04:44.763Z,27.55
2022-08-11T13:07:50.682Z,23.85
2022-08-11T13:11:04.899Z,26.75
2022-08-11T13:14:00.221Z,22.55
2022-08-11T13:17:13.478Z,20.38
2022-08-11T13:20:05.179Z,21.85
2022-08-11T13:22:59.032Z,18.70
2022-08-11T13:25:56.213Z,20.70
2022-08-11T13:28:48.096Z,25.02
2022-08-11T13:31:40.351Z,23.83
2022-08-11T13:34:36.999Z,27.02
2022-08-11T13:38:17.990Z,22.00
2022-08-11T13:40:55.697Z,21.17
2022-08-11T13:43:47.780Z,23.63
2022-08-11T13:46:40.039Z,24.42
2022-08-11T13:49:43.141Z,21.77
2022-08-11T13:52:34.542Z,23.70
2022-08-11T13:55:45.112Z,21.13
2022-08-11T13:58:39.544Z,17.52
2022-08-11T14:02:20.019Z,20.83
2022-08-11T14:05:08.806Z,18.23
2022-08-11T14:08:07.648Z,18.33
2022-08-11T14:12:21.150Z,18.38
2022-08-11T14:14:37.244Z,19.77
2022-08-11T14:17:47.280Z,20.30
2022-08-11T14:21:15.582Z,23.45
2022-08-11T14:24:07.322Z,23.58
2022-08-11T14:26:58.887Z,22.92
2022-08-11T14:29:56.938Z,20.17
2022-08-11T14:32:55.537Z,24.65
2022-08-11T14:36:23.452Z,17.55
2022-08-11T14:39:19.477Z,19.15
2022-08-11T14:42:28.647Z,17.83
2022-08-11T14:45:58.314Z,18.38
2022-08-11T14:48:47.701Z,17.42
2022-08-11T14:51:38.129Z,16.27
2022-08-11T14:54:48.790Z,21.05
2022-08-11T14:57:54.825Z,18.08
2022-08-11T15:00:47.145Z,20.13
2022-08-11T15:03:37.345Z,22.02
2022-08-11T15:06:30.050Z,20.60
2022-08-11T15:09:20.556Z,18.60
2022-08-11T15:12:32.184Z,21.23
2022-08-11T15:15:40.582Z,18.95
2022-08-11T15:18:33.495Z,21.83
2022-08-11T15:21:41.247Z,21.25
2022-08-11T15:24:31.270Z,20.23
2022-08-11T15:27:40.740Z,21.00
2022-08-11T15:30:49.511Z,19.90
2022-08-11T15:33:59.777Z,21.83
2022-08-11T15:37:09.412Z,20.90
2022-08-11T15:40:31.272Z,20.15
2022-08-11T15:43:51.565Z,18.45
2022-08-11T15:47:00.276Z,19.27
2022-08-11T15:50:10.528Z,22.67
2022-08-11T15:53:06.158Z,22.40
2022-08-11T15:55:57.414Z,18.45
2022-08-11T15:59:10.496Z,20.92
2022-08-11T16:02:42.195Z,20.75
2022-08-11T16:05:45.879Z,21.85
2022-08-11T16:08:37.530Z,20.15
2022-08-11T16:11:27.493Z,19.00
2022-08-11T16:14:36.284Z,21.92
2022-08-11T16:17:29.854Z,19.00
2022-08-11T16:20:23.308Z,19.83
2022-08-11T16:23:13.753Z,20.48
2022-08-11T16:27:09.452Z,23.70
2022-08-11T16:29:13.877Z,22.98
2022-08-11T16:32:19.695Z,25.27
2022-08-11T16:35:42.771Z,21.50
2022-08-11T16:38:38.359Z,13.88
2022-08-11T16:41:50.542Z,16.80
2022-08-11T16:44:59.508Z,15.50
2022-08-11T16:48:33.154Z,20.45
2022-08-11T16:51:02.238Z,19.10
2022-08-11T16:54:04.666Z,14.60
2022-08-11T16:56:56.969Z,20.17
2022-08-11T16:59:46.404Z,18.90
2022-08-11T17:02:57.603Z,17.65
2022-08-11T17:06:16.353Z,16.33
2022-08-11T17:09:24.360Z,16.20
2022-08-11T17:12:32.963Z,10.63
2022-08-11T17:15:41.838Z,10.93
2022-08-11T17:18:41.689Z,17.58
2022-08-11T17:22:01.017Z,16.20
2022-08-11T17:24:52.789Z,16.55
2022-08-11T17:27:44.675Z,16.52
2022-08-11T17:30:53.153Z,14.82
2022-08-11T17:34:00.963Z,16.02
2022-08-11T17:36:52.758Z,18.10
2022-08-11T17:39:43.593Z,19.05
2022-08-11T17:42:52.848Z,15.55
2022-08-11T17:46:02.795Z,21.08
2022-08-11T17:48:54.373Z,18.10
2022-08-11T17:52:04.833Z,18.65
2022-08-11T17:55:13.750Z,21.63
2022-08-11T17:58:21.665Z,17.55
2022-08-11T18:01:12.676Z,16.38
2022-08-11T18:04:04.069Z,16.35
2022-08-11T18:06:56.372Z,14.25
2022-08-11T18:10:03.978Z,19.52
2022-08-11T18:13:13.641Z,15.35
2022-08-11T18:16:21.043Z,18.42
2022-08-11T18:19:30.793Z,19.52
2022-08-11T18:22:55.469Z,14.55
2022-08-11T18:26:07.498Z,17.38
2022-08-11T18:29:22.813Z,17.20
2022-08-11T18:32:49.204Z,15.35
2022-08-11T18:36:01.889Z,16.13
2022-08-11T18:39:10.563Z,16.40
2022-08-11T18:42:29.113Z,17.95
2022-08-11T18:45:45.315Z,19.98
2022-08-11T18:48:57.671Z,27.27
2022-08-11T18:52:08.622Z,27.20
2022-08-11T18:55:19.180Z,32.22
2022-08-11T18:58:30.188Z,34.15
2022-08-11T19:01:40.265Z,26.52
2022-08-11T19:04:51.723Z,28.83
2022-08-11T19:08:01.320Z,24.77
2022-08-11T19:11:10.532Z,23.90
2022-08-11T19:14:20.922Z,22.20
2022-08-11T19:17:43.442Z,20.88
2022-08-11T19:20:55.951Z,22.63
2022-08-11T19:24:07.321Z,23.75
2022-08-11T19:27:15.402Z,20.90
2022-08-11T19:30:24.125Z,18.70
2022-08-11T19:33:59.771Z,21.98
2022-08-11T19:37:02.196Z,21.27
2022-08-11T19:40:14.777Z,26.90
2022-08-11T19:43:26.444Z,23.60
2022-08-11T19:46:39.147Z,29.60
2022-08-11T19:49:47.565Z,34.83
2022-08-11T19:52:56.652Z,35.58
2022-08-11T19:56:08.652Z,34.15
2022-08-11T19:59:16.270Z,38.55
2022-08-11T20:02:27.980Z,38.00
2022-08-11T20:05:55.519Z,37.33
2022-08-11T20:09:09.814Z,32.17
2022-08-11T20:12:18.644Z,38.50
2022-08-11T20:15:32.129Z,35.67
2022-08-11T20:18:40.613Z,33.60
2022-08-11T20:21:49.213Z,38.53
2022-08-11T20:24:58.162Z,34.67
2022-08-11T20:28:07.057Z,43.28
2022-08-11T20:31:14.862Z,46.58
2022-08-11T20:34:23.534Z,42.95
2022-08-11T20:37:34.422Z,45.53
2022-08-11T20:40:44.808Z,46.05
2022-08-11T20:44:08.473Z,50.35
2022-08-11T20:47:18.009Z,45.05
2022-08-11T20:50:28.784Z,46.78
2022-08-11T20:53:39.372Z,48.70
2022-08-11T20:56:51.011Z,52.22
2022-08-11T20:59:58.915Z,45.17
2022-08-11T21:03:08.948Z,45.58
2022-08-11T21:06:31.155Z,39.33
2022-08-11T21:09:58.213Z,36.65
2022-08-11T21:13:18.066Z,39.92
2022-08-11T21:16:39.911Z,34.42
2022-08-11T21:19:59.799Z,38.10
2022-08-11T21:23:24.288Z,30.27
2022-08-11T21:26:35.974Z,21.13
2022-08-11T21:29:45.867Z,23.00
2022-08-11T21:32:54.257Z,22.67
2022-08-11T21:36:02.354Z,15.95
2022-08-11T21:39:10.878Z,21.42
2022-08-11T21:42:19.581Z,19.92
2022-08-11T21:45:29.749Z,22.30
2022-08-11T21:48:37.900Z,23.25
2022-08-11T21:51:46.204Z,17.27
2022-08-11T21:54:53.556Z,23.02
2022-08-11T21:58:01.917Z,20.33
2022-08-11T22:01:09.779Z,25.75
2022-08-11T22:04:18.966Z,23.65
2022-08-11T22:07:27.366Z,25.80
2022-08-11T22:10:42.525Z,24.23
2022-08-11T22:14:05.946Z,23.00
2022-08-11T22:17:16.219Z,24.38
2022-08-11T22:20:25.864Z,17.10
2022-08-11T22:23:37.055Z,23.65
2022-08-11T22:26:47.548Z,18.85
2022-08-11T22:29:55.908Z,18.23
2022-08-11T22:33:04.703Z,19.13
2022-08-11T22:36:13.833Z,20.10
2022-08-11T22:39:23.616Z,19.27
2022-08-11T22:42:33.567Z,18.50
2022-08-11T22:45:42.042Z,16.85
2022-08-11T22:48:51.180Z,19.08
2022-08-11T22:52:01.187Z,19.50
2022-08-11T22:55:11.216Z,14.38
2022-08-11T22:58:19.097Z,18.50
2022-08-11T23:01:28.103Z,18.27
2022-08-11T23:04:37.570Z,13.07
2022-08-11T23:07:51.261Z,14.60
2022-08-11T23:10:59.952Z,16.98
2022-08-11T23:14:08.131Z,16.85
2022-08-11T23:17:16.416Z,12.05
2022-08-11T23:20:38.898Z,15.75
2022-08-11T23:23:52.922Z,17.02
2022-08-11T23:27:01.206Z,19.63
2022-08-11T23:30:11.503Z,18.17
2022-08-11T23:33:21.404Z,18.33
2022-08-11T23:36:36.174Z,18.48
2022-08-11T23:39:54.685Z,21.45
2022-08-11T23:43:02.298Z,18.70
2022-08-11T23:46:10.757Z,24.42
2022-08-11T23:49:22.803Z,20.63
2022-08-11T23:52:34.703Z,20.10
2022-08-11T23:55:43.220Z,24.48
2022-08-11T23:58:53.073Z,26.00
